sensor_id;sensor_type;location;lat;lon;timestamp;P1;durP1;ratioP1;P2;durP2;ratioP2
53843;SDS011;39744;53.314;5.710;2023-06-04T00:00:10;6.10;;;2.60;;
53843;SDS011;39744;53.314;5.710;2023-06-04T00:02:36;7.30;;;2.65;;
53843;SDS011;39744;53.314;5.710;2023-06-04T00:05:02;10.90;;;3.00;;
53843;SDS011;39744;53.314;5.710;2023-06-04T00:07:28;7.22;;;2.40;;
53843;SDS011;39744;53.314;5.710;2023-06-04T00:09:54;10.23;;;3.10;;
53843;SDS011;39744;53.314;5.710;2023-06-04T00:12:20;9.73;;;2.72;;
53843;SDS011;39744;53.314;5.710;2023-06-04T00:14:46;7.63;;;2.47;;
53843;SDS011;39744;53.314;5.710;2023-06-04T00:17:12;9.95;;;3.33;;
53843;SDS011;39744;53.314;5.710;2023-06-04T00:19:39;7.18;;;2.75;;
53843;SDS011;39744;53.314;5.710;2023-06-04T00:22:05;6.60;;;2.58;;
53843;SDS011;39744;53.314;5.710;2023-06-04T00:24:32;5.93;;;2.72;;
53843;SDS011;39744;53.314;5.710;2023-06-04T00:26:58;8.23;;;2.60;;
53843;SDS011;39744;53.314;5.710;2023-06-04T00:29:24;6.80;;;2.40;;
53843;SDS011;39744;53.314;5.710;2023-06-04T00:31:50;7.78;;;2.50;;
53843;SDS011;39744;53.314;5.710;2023-06-04T00:34:17;9.20;;;3.17;;
53843;SDS011;39744;53.314;5.710;2023-06-04T00:36:43;5.90;;;2.20;;
53843;SDS011;39744;53.314;5.710;2023-06-04T00:39:09;8.27;;;2.83;;
53843;SDS011;39744;53.314;5.710;2023-06-04T00:41:35;10.00;;;3.08;;
53843;SDS011;39744;53.314;5.710;2023-06-04T00:44:01;6.47;;;2.60;;
53843;SDS011;39744;53.314;5.710;2023-06-04T00:46:31;9.20;;;3.10;;
53843;SDS011;39744;53.314;5.710;2023-06-04T00:48:57;5.90;;;2.72;;
53843;SDS011;39744;53.314;5.710;2023-06-04T00:51:23;6.90;;;2.47;;
53843;SDS011;39744;53.314;5.710;2023-06-04T00:53:50;9.93;;;2.60;;
53843;SDS011;39744;53.314;5.710;2023-06-04T00:56:16;6.63;;;2.60;;
53843;SDS011;39744;53.314;5.710;2023-06-04T00:58:43;8.30;;;2.70;;
53843;SDS011;39744;53.314;5.710;2023-06-04T01:01:26;9.25;;;2.53;;
53843;SDS011;39744;53.314;5.710;2023-06-04T01:03:56;5.55;;;2.42;;
53843;SDS011;39744;53.314;5.710;2023-06-04T01:06:38;10.93;;;2.30;;
53843;SDS011;39744;53.314;5.710;2023-06-04T01:09:04;6.45;;;2.20;;
53843;SDS011;39744;53.314;5.710;2023-06-04T01:11:31;7.18;;;2.40;;
53843;SDS011;39744;53.314;5.710;2023-06-04T01:13:57;9.95;;;2.70;;
53843;SDS011;39744;53.314;5.710;2023-06-04T01:16:23;8.50;;;2.38;;
53843;SDS011;39744;53.314;5.710;2023-06-04T01:18:50;8.13;;;2.85;;
53843;SDS011;39744;53.314;5.710;2023-06-04T01:21:16;7.43;;;2.70;;
53843;SDS011;39744;53.314;5.710;2023-06-04T01:23:50;9.23;;;2.20;;
53843;SDS011;39744;53.314;5.710;2023-06-04T01:26:29;6.20;;;2.20;;
53843;SDS011;39744;53.314;5.710;2023-06-04T01:28:56;7.53;;;2.47;;
53843;SDS011;39744;53.314;5.710;2023-06-04T01:31:23;9.70;;;2.38;;
53843;SDS011;39744;53.314;5.710;2023-06-04T01:33:53;6.90;;;2.20;;
53843;SDS011;39744;53.314;5.710;2023-06-04T01:36:20;5.97;;;1.70;;
53843;SDS011;39744;53.314;5.710;2023-06-04T01:38:47;6.32;;;2.28;;
53843;SDS011;39744;53.314;5.710;2023-06-04T01:41:13;11.23;;;2.65;;
53843;SDS011;39744;53.314;5.710;2023-06-04T01:43:40;6.28;;;2.58;;
53843;SDS011;39744;53.314;5.710;2023-06-04T01:46:06;7.15;;;2.25;;
53843;SDS011;39744;53.314;5.710;2023-06-04T01:48:32;8.88;;;2.10;;
53843;SDS011;39744;53.314;5.710;2023-06-04T01:50:58;10.05;;;2.30;;
53843;SDS011;39744;53.314;5.710;2023-06-04T01:53:25;5.88;;;2.72;;
53843;SDS011;39744;53.314;5.710;2023-06-04T01:55:51;6.40;;;2.58;;
53843;SDS011;39744;53.314;5.710;2023-06-04T01:58:17;6.38;;;2.72;;
53843;SDS011;39744;53.314;5.710;2023-06-04T02:00:48;5.22;;;2.10;;
53843;SDS011;39744;53.314;5.710;2023-06-04T02:03:14;6.57;;;2.42;;
53843;SDS011;39744;53.314;5.710;2023-06-04T02:05:41;12.73;;;3.17;;
53843;SDS011;39744;53.314;5.710;2023-06-04T02:08:09;6.60;;;2.65;;
53843;SDS011;39744;53.314;5.710;2023-06-04T02:10:36;8.10;;;2.53;;
53843;SDS011;39744;53.314;5.710;2023-06-04T02:13:02;7.38;;;2.80;;
53843;SDS011;39744;53.314;5.710;2023-06-04T02:15:29;7.50;;;3.22;;
53843;SDS011;39744;53.314;5.710;2023-06-04T02:17:59;8.00;;;3.50;;
53843;SDS011;39744;53.314;5.710;2023-06-04T02:20:40;6.78;;;2.90;;
53843;SDS011;39744;53.314;5.710;2023-06-04T02:23:07;9.57;;;3.20;;
53843;SDS011;39744;53.314;5.710;2023-06-04T02:25:33;6.18;;;2.80;;
53843;SDS011;39744;53.314;5.710;2023-06-04T02:28:00;6.78;;;2.85;;
53843;SDS011;39744;53.314;5.710;2023-06-04T02:30:26;8.82;;;2.85;;
53843;SDS011;39744;53.314;5.710;2023-06-04T02:32:52;6.40;;;3.35;;
53843;SDS011;39744;53.314;5.710;2023-06-04T02:35:20;8.00;;;2.50;;
53843;SDS011;39744;53.314;5.710;2023-06-04T02:37:48;9.43;;;3.28;;
53843;SDS011;39744;53.314;5.710;2023-06-04T02:40:14;8.18;;;3.53;;
53843;SDS011;39744;53.314;5.710;2023-06-04T02:42:40;7.75;;;3.05;;
53843;SDS011;39744;53.314;5.710;2023-06-04T02:45:06;8.98;;;3.90;;
53843;SDS011;39744;53.314;5.710;2023-06-04T02:47:32;7.00;;;3.10;;
53843;SDS011;39744;53.314;5.710;2023-06-04T02:49:58;7.63;;;2.80;;
53843;SDS011;39744;53.314;5.710;2023-06-04T02:52:25;7.00;;;3.38;;
53843;SDS011;39744;53.314;5.710;2023-06-04T02:54:51;4.82;;;2.88;;
53843;SDS011;39744;53.314;5.710;2023-06-04T02:57:17;9.45;;;2.70;;
53843;SDS011;39744;53.314;5.710;2023-06-04T02:59:43;9.18;;;2.88;;
53843;SDS011;39744;53.314;5.710;2023-06-04T03:02:09;9.45;;;3.15;;
53843;SDS011;39744;53.314;5.710;2023-06-04T03:04:36;7.78;;;2.90;;
53843;SDS011;39744;53.314;5.710;2023-06-04T03:07:02;10.55;;;3.28;;
53843;SDS011;39744;53.314;5.710;2023-06-04T03:09:32;8.23;;;3.92;;
53843;SDS011;39744;53.314;5.710;2023-06-04T03:12:02;7.80;;;3.42;;
53843;SDS011;39744;53.314;5.710;2023-06-04T03:14:28;10.07;;;3.65;;
53843;SDS011;39744;53.314;5.710;2023-06-04T03:17:00;9.05;;;4.28;;
53843;SDS011;39744;53.314;5.710;2023-06-04T03:19:39;10.50;;;5.00;;
53843;SDS011;39744;53.314;5.710;2023-06-04T03:22:05;9.40;;;4.75;;
53843;SDS011;39744;53.314;5.710;2023-06-04T03:24:35;13.43;;;5.10;;
53843;SDS011;39744;53.314;5.710;2023-06-04T03:27:05;10.93;;;5.55;;
53843;SDS011;39744;53.314;5.710;2023-06-04T03:29:32;10.82;;;5.68;;
53843;SDS011;39744;53.314;5.710;2023-06-04T03:31:59;8.85;;;4.90;;
53843;SDS011;39744;53.314;5.710;2023-06-04T03:34:25;10.23;;;5.68;;
53843;SDS011;39744;53.314;5.710;2023-06-04T03:36:51;9.95;;;5.28;;
53843;SDS011;39744;53.314;5.710;2023-06-04T03:39:17;11.45;;;5.55;;
53843;SDS011;39744;53.314;5.710;2023-06-04T03:41:44;10.45;;;5.70;;
53843;SDS011;39744;53.314;5.710;2023-06-04T03:44:12;11.43;;;6.45;;
53843;SDS011;39744;53.314;5.710;2023-06-04T03:46:38;13.63;;;6.22;;
53843;SDS011;39744;53.314;5.710;2023-06-04T03:49:05;12.20;;;5.97;;
53843;SDS011;39744;53.314;5.710;2023-06-04T03:51:31;15.43;;;6.05;;
53843;SDS011;39744;53.314;5.710;2023-06-04T03:53:58;10.15;;;5.60;;
53843;SDS011;39744;53.314;5.710;2023-06-04T03:56:24;9.93;;;5.70;;
53843;SDS011;39744;53.314;5.710;2023-06-04T03:58:52;11.50;;;5.28;;
53843;SDS011;39744;53.314;5.710;2023-06-04T04:01:18;10.13;;;4.90;;
53843;SDS011;39744;53.314;5.710;2023-06-04T04:03:44;9.65;;;4.97;;
53843;SDS011;39744;53.314;5.710;2023-06-04T04:06:13;9.55;;;4.60;;
53843;SDS011;39744;53.314;5.710;2023-06-04T04:08:39;11.35;;;4.22;;
53843;SDS011;39744;53.314;5.710;2023-06-04T04:11:07;11.98;;;4.53;;
53843;SDS011;39744;53.314;5.710;2023-06-04T04:13:33;12.40;;;4.13;;
53843;SDS011;39744;53.314;5.710;2023-06-04T04:15:59;19.30;;;4.80;;
53843;SDS011;39744;53.314;5.710;2023-06-04T04:18:26;12.15;;;4.40;;
53843;SDS011;39744;53.314;5.710;2023-06-04T04:20:52;15.73;;;4.43;;
53843;SDS011;39744;53.314;5.710;2023-06-04T04:23:18;13.98;;;4.03;;
53843;SDS011;39744;53.314;5.710;2023-06-04T04:25:45;14.95;;;4.40;;
53843;SDS011;39744;53.314;5.710;2023-06-04T04:28:12;10.48;;;3.83;;
53843;SDS011;39744;53.314;5.710;2023-06-04T04:30:38;11.55;;;3.90;;
53843;SDS011;39744;53.314;5.710;2023-06-04T04:33:04;14.00;;;3.92;;
53843;SDS011;39744;53.314;5.710;2023-06-04T04:35:31;14.15;;;4.05;;
53843;SDS011;39744;53.314;5.710;2023-06-04T04:38:00;10.73;;;3.65;;
53843;SDS011;39744;53.314;5.710;2023-06-04T04:40:29;11.38;;;3.80;;
53843;SDS011;39744;53.314;5.710;2023-06-04T04:42:55;9.55;;;3.53;;
53843;SDS011;39744;53.314;5.710;2023-06-04T04:45:21;10.98;;;3.45;;
53843;SDS011;39744;53.314;5.710;2023-06-04T04:47:47;13.05;;;4.07;;
53843;SDS011;39744;53.314;5.710;2023-06-04T04:50:14;9.98;;;3.65;;
53843;SDS011;39744;53.314;5.710;2023-06-04T04:52:40;12.30;;;4.13;;
53843;SDS011;39744;53.314;5.710;2023-06-04T04:55:06;11.13;;;3.88;;
53843;SDS011;39744;53.314;5.710;2023-06-04T04:57:32;10.68;;;3.95;;
53843;SDS011;39744;53.314;5.710;2023-06-04T04:59:58;13.82;;;4.80;;
53843;SDS011;39744;53.314;5.710;2023-06-04T05:02:24;16.58;;;4.45;;
53843;SDS011;39744;53.314;5.710;2023-06-04T05:04:50;16.13;;;4.57;;
53843;SDS011;39744;53.314;5.710;2023-06-04T05:07:16;14.30;;;5.22;;
53843;SDS011;39744;53.314;5.710;2023-06-04T05:09:44;14.43;;;4.70;;
53843;SDS011;39744;53.314;5.710;2023-06-04T05:12:10;15.38;;;4.70;;
53843;SDS011;39744;53.314;5.710;2023-06-04T05:14:37;16.20;;;4.53;;
53843;SDS011;39744;53.314;5.710;2023-06-04T05:17:03;12.48;;;4.28;;
53843;SDS011;39744;53.314;5.710;2023-06-04T05:19:31;14.68;;;4.28;;
53843;SDS011;39744;53.314;5.710;2023-06-04T05:21:58;9.30;;;3.65;;
53843;SDS011;39744;53.314;5.710;2023-06-04T05:24:25;12.35;;;3.25;;
53843;SDS011;39744;53.314;5.710;2023-06-04T05:26:51;9.05;;;3.10;;
53843;SDS011;39744;53.314;5.710;2023-06-04T05:29:17;8.90;;;3.15;;
53843;SDS011;39744;53.314;5.710;2023-06-04T05:31:43;11.60;;;3.47;;
53843;SDS011;39744;53.314;5.710;2023-06-04T05:34:09;13.10;;;3.10;;
53843;SDS011;39744;53.314;5.710;2023-06-04T05:36:40;12.98;;;3.28;;
53843;SDS011;39744;53.314;5.710;2023-06-04T05:39:06;11.13;;;2.75;;
53843;SDS011;39744;53.314;5.710;2023-06-04T05:41:34;15.10;;;3.33;;
53843;SDS011;39744;53.314;5.710;2023-06-04T05:44:00;10.10;;;3.28;;
53843;SDS011;39744;53.314;5.710;2023-06-04T05:46:27;8.85;;;2.70;;
53843;SDS011;39744;53.314;5.710;2023-06-04T05:48:53;11.93;;;2.80;;
53843;SDS011;39744;53.314;5.710;2023-06-04T05:51:19;9.65;;;3.00;;
53843;SDS011;39744;53.314;5.710;2023-06-04T05:53:45;6.97;;;2.63;;
53843;SDS011;39744;53.314;5.710;2023-06-04T05:56:12;10.50;;;2.70;;
53843;SDS011;39744;53.314;5.710;2023-06-04T05:58:38;13.82;;;2.55;;
53843;SDS011;39744;53.314;5.710;2023-06-04T06:01:04;11.98;;;2.78;;
53843;SDS011;39744;53.314;5.710;2023-06-04T06:03:31;9.48;;;2.58;;
53843;SDS011;39744;53.314;5.710;2023-06-04T06:05:57;15.02;;;3.00;;
53843;SDS011;39744;53.314;5.710;2023-06-04T06:08:24;10.05;;;2.63;;
53843;SDS011;39744;53.314;5.710;2023-06-04T06:10:50;10.25;;;2.40;;
53843;SDS011;39744;53.314;5.710;2023-06-04T06:13:17;9.48;;;2.40;;
53843;SDS011;39744;53.314;5.710;2023-06-04T06:15:43;8.38;;;2.30;;
53843;SDS011;39744;53.314;5.710;2023-06-04T06:18:09;7.35;;;2.20;;
53843;SDS011;39744;53.314;5.710;2023-06-04T06:20:35;8.27;;;2.50;;
53843;SDS011;39744;53.314;5.710;2023-06-04T06:23:07;6.88;;;2.50;;
53843;SDS011;39744;53.314;5.710;2023-06-04T06:25:33;7.70;;;2.23;;
53843;SDS011;39744;53.314;5.710;2023-06-04T06:27:59;8.48;;;2.40;;
53843;SDS011;39744;53.314;5.710;2023-06-04T06:30:25;7.93;;;2.15;;
53843;SDS011;39744;53.314;5.710;2023-06-04T06:32:51;8.25;;;2.50;;
53843;SDS011;39744;53.314;5.710;2023-06-04T06:35:18;10.25;;;2.50;;
53843;SDS011;39744;53.314;5.710;2023-06-04T06:37:44;6.13;;;2.08;;
53843;SDS011;39744;53.314;5.710;2023-06-04T06:40:10;6.75;;;2.15;;
53843;SDS011;39744;53.314;5.710;2023-06-04T06:42:37;7.90;;;2.20;;
53843;SDS011;39744;53.314;5.710;2023-06-04T06:45:03;9.05;;;2.63;;
53843;SDS011;39744;53.314;5.710;2023-06-04T06:47:29;9.82;;;2.40;;
53843;SDS011;39744;53.314;5.710;2023-06-04T06:49:55;8.00;;;2.00;;
53843;SDS011;39744;53.314;5.710;2023-06-04T06:52:21;9.63;;;2.72;;
53843;SDS011;39744;53.314;5.710;2023-06-04T06:54:47;7.68;;;2.22;;
53843;SDS011;39744;53.314;5.710;2023-06-04T06:57:14;6.55;;;1.90;;
53843;SDS011;39744;53.314;5.710;2023-06-04T06:59:40;5.78;;;1.92;;
53843;SDS011;39744;53.314;5.710;2023-06-04T07:02:06;7.13;;;2.00;;
53843;SDS011;39744;53.314;5.710;2023-06-04T07:04:32;7.55;;;2.15;;
53843;SDS011;39744;53.314;5.710;2023-06-04T07:06:58;7.32;;;2.08;;
53843;SDS011;39744;53.314;5.710;2023-06-04T07:09:24;6.00;;;2.00;;
53843;SDS011;39744;53.314;5.710;2023-06-04T07:11:50;7.57;;;2.20;;
53843;SDS011;39744;53.314;5.710;2023-06-04T07:14:16;6.30;;;2.30;;
53843;SDS011;39744;53.314;5.710;2023-06-04T07:16:42;7.10;;;2.40;;
53843;SDS011;39744;53.314;5.710;2023-06-04T07:19:08;6.53;;;2.00;;
53843;SDS011;39744;53.314;5.710;2023-06-04T07:21:34;10.10;;;2.17;;
53843;SDS011;39744;53.314;5.710;2023-06-04T07:24:00;6.25;;;1.85;;
53843;SDS011;39744;53.314;5.710;2023-06-04T07:26:26;9.43;;;2.05;;
53843;SDS011;39744;53.314;5.710;2023-06-04T07:28:55;9.23;;;2.25;;
53843;SDS011;39744;53.314;5.710;2023-06-04T07:31:22;5.95;;;2.35;;
53843;SDS011;39744;53.314;5.710;2023-06-04T07:33:48;8.15;;;2.28;;
53843;SDS011;39744;53.314;5.710;2023-06-04T07:36:15;6.43;;;2.17;;
53843;SDS011;39744;53.314;5.710;2023-06-04T07:38:41;10.90;;;2.45;;
53843;SDS011;39744;53.314;5.710;2023-06-04T07:41:07;5.40;;;2.20;;
53843;SDS011;39744;53.314;5.710;2023-06-04T07:43:34;7.50;;;2.47;;
53843;SDS011;39744;53.314;5.710;2023-06-04T07:46:00;5.57;;;2.03;;
53843;SDS011;39744;53.314;5.710;2023-06-04T07:48:26;7.15;;;2.05;;
53843;SDS011;39744;53.314;5.710;2023-06-04T07:50:58;6.60;;;1.92;;
53843;SDS011;39744;53.314;5.710;2023-06-04T07:53:25;9.18;;;2.45;;
53843;SDS011;39744;53.314;5.710;2023-06-04T07:55:52;4.80;;;2.03;;
53843;SDS011;39744;53.314;5.710;2023-06-04T07:58:18;8.52;;;1.85;;
53843;SDS011;39744;53.314;5.710;2023-06-04T08:00:44;5.22;;;2.00;;
53843;SDS011;39744;53.314;5.710;2023-06-04T08:03:10;6.38;;;1.85;;
53843;SDS011;39744;53.314;5.710;2023-06-04T08:05:36;7.00;;;2.10;;
53843;SDS011;39744;53.314;5.710;2023-06-04T08:08:02;4.20;;;1.80;;
53843;SDS011;39744;53.314;5.710;2023-06-04T08:10:29;8.43;;;2.05;;
53843;SDS011;39744;53.314;5.710;2023-06-04T08:12:55;6.90;;;2.03;;
53843;SDS011;39744;53.314;5.710;2023-06-04T08:15:21;7.30;;;1.92;;
53843;SDS011;39744;53.314;5.710;2023-06-04T08:17:47;6.47;;;1.70;;
53843;SDS011;39744;53.314;5.710;2023-06-04T08:20:13;4.18;;;1.63;;
53843;SDS011;39744;53.314;5.710;2023-06-04T08:22:39;8.38;;;1.95;;
53843;SDS011;39744;53.314;5.710;2023-06-04T08:25:06;4.80;;;1.73;;
53843;SDS011;39744;53.314;5.710;2023-06-04T08:27:33;4.63;;;1.50;;
53843;SDS011;39744;53.314;5.710;2023-06-04T08:29:59;4.55;;;1.90;;
53843;SDS011;39744;53.314;5.710;2023-06-04T08:32:27;4.75;;;1.80;;
53843;SDS011;39744;53.314;5.710;2023-06-04T08:34:53;4.35;;;1.60;;
53843;SDS011;39744;53.314;5.710;2023-06-04T08:37:18;3.58;;;1.60;;
53843;SDS011;39744;53.314;5.710;2023-06-04T08:39:45;5.57;;;1.80;;
53843;SDS011;39744;53.314;5.710;2023-06-04T08:42:30;3.10;;;1.38;;
53843;SDS011;39744;53.314;5.710;2023-06-04T08:44:57;4.43;;;1.40;;
53843;SDS011;39744;53.314;5.710;2023-06-04T08:47:24;7.32;;;1.77;;
53843;SDS011;39744;53.314;5.710;2023-06-04T08:49:51;5.13;;;1.50;;
53843;SDS011;39744;53.314;5.710;2023-06-04T08:52:17;6.43;;;2.00;;
53843;SDS011;39744;53.314;5.710;2023-06-04T08:54:50;5.63;;;2.13;;
53843;SDS011;39744;53.314;5.710;2023-06-04T08:57:19;4.65;;;1.60;;
53843;SDS011;39744;53.314;5.710;2023-06-04T08:59:46;4.00;;;1.60;;
53843;SDS011;39744;53.314;5.710;2023-06-04T09:02:13;3.83;;;1.50;;
53843;SDS011;39744;53.314;5.710;2023-06-04T09:04:40;6.20;;;1.85;;
53843;SDS011;39744;53.314;5.710;2023-06-04T09:07:06;6.30;;;2.10;;
53843;SDS011;39744;53.314;5.710;2023-06-04T09:09:33;6.05;;;2.00;;
53843;SDS011;39744;53.314;5.710;2023-06-04T09:12:02;4.65;;;1.50;;
53843;SDS011;39744;53.314;5.710;2023-06-04T09:14:29;6.55;;;1.55;;
53843;SDS011;39744;53.314;5.710;2023-06-04T09:16:55;5.78;;;1.55;;
53843;SDS011;39744;53.314;5.710;2023-06-04T09:19:23;7.60;;;1.92;;
53843;SDS011;39744;53.314;5.710;2023-06-04T09:21:53;4.75;;;1.75;;
53843;SDS011;39744;53.314;5.710;2023-06-04T09:24:20;4.00;;;1.60;;
53843;SDS011;39744;53.314;5.710;2023-06-04T09:26:46;5.28;;;1.75;;
53843;SDS011;39744;53.314;5.710;2023-06-04T09:29:12;4.57;;;2.08;;
53843;SDS011;39744;53.314;5.710;2023-06-04T09:31:38;5.13;;;1.60;;
53843;SDS011;39744;53.314;5.710;2023-06-04T09:34:05;6.00;;;1.90;;
53843;SDS011;39744;53.314;5.710;2023-06-04T09:36:34;3.63;;;1.60;;
53843;SDS011;39744;53.314;5.710;2023-06-04T09:39:01;6.75;;;1.80;;
53843;SDS011;39744;53.314;5.710;2023-06-04T09:41:28;5.35;;;1.60;;
53843;SDS011;39744;53.314;5.710;2023-06-04T09:44:00;4.65;;;1.67;;
53843;SDS011;39744;53.314;5.710;2023-06-04T09:46:31;5.20;;;1.70;;
53843;SDS011;39744;53.314;5.710;2023-06-04T09:49:00;4.68;;;1.77;;
53843;SDS011;39744;53.314;5.710;2023-06-04T09:51:28;5.95;;;1.67;;
53843;SDS011;39744;53.314;5.710;2023-06-04T09:53:54;6.55;;;2.03;;
53843;SDS011;39744;53.314;5.710;2023-06-04T09:56:21;5.80;;;2.20;;
53843;SDS011;39744;53.314;5.710;2023-06-04T09:58:48;5.10;;;1.98;;
53843;SDS011;39744;53.314;5.710;2023-06-04T10:01:15;5.38;;;1.95;;
53843;SDS011;39744;53.314;5.710;2023-06-04T10:03:42;4.78;;;1.50;;
53843;SDS011;39744;53.314;5.710;2023-06-04T10:06:12;5.40;;;1.60;;
53843;SDS011;39744;53.314;5.710;2023-06-04T10:08:41;4.07;;;1.40;;
53843;SDS011;39744;53.314;5.710;2023-06-04T10:11:08;4.55;;;1.70;;
53843;SDS011;39744;53.314;5.710;2023-06-04T10:13:35;6.53;;;1.80;;
53843;SDS011;39744;53.314;5.710;2023-06-04T10:16:03;5.32;;;1.75;;
53843;SDS011;39744;53.314;5.710;2023-06-04T10:18:29;4.47;;;1.67;;
53843;SDS011;39744;53.314;5.710;2023-06-04T10:20:55;4.63;;;1.90;;
53843;SDS011;39744;53.314;5.710;2023-06-04T10:23:22;5.60;;;1.95;;
53843;SDS011;39744;53.314;5.710;2023-06-04T10:25:49;5.05;;;1.73;;
53843;SDS011;39744;53.314;5.710;2023-06-04T10:28:18;5.35;;;1.63;;
53843;SDS011;39744;53.314;5.710;2023-06-04T10:30:45;5.18;;;1.75;;
53843;SDS011;39744;53.314;5.710;2023-06-04T10:33:11;4.32;;;1.80;;
53843;SDS011;39744;53.314;5.710;2023-06-04T10:35:38;5.05;;;1.80;;
53843;SDS011;39744;53.314;5.710;2023-06-04T10:38:08;6.07;;;1.75;;
53843;SDS011;39744;53.314;5.710;2023-06-04T10:40:34;5.93;;;1.90;;
53843;SDS011;39744;53.314;5.710;2023-06-04T10:43:07;4.18;;;1.60;;
53843;SDS011;39744;53.314;5.710;2023-06-04T10:45:33;4.35;;;1.50;;
53843;SDS011;39744;53.314;5.710;2023-06-04T10:48:04;5.20;;;1.80;;
53843;SDS011;39744;53.314;5.710;2023-06-04T10:50:33;4.13;;;1.70;;
53843;SDS011;39744;53.314;5.710;2023-06-04T10:53:00;4.05;;;1.48;;
53843;SDS011;39744;53.314;5.710;2023-06-04T10:55:30;5.30;;;1.50;;
53843;SDS011;39744;53.314;5.710;2023-06-04T10:58:00;4.45;;;1.70;;
53843;SDS011;39744;53.314;5.710;2023-06-04T11:00:40;4.38;;;1.77;;
53843;SDS011;39744;53.314;5.710;2023-06-04T11:03:07;4.75;;;1.95;;
53843;SDS011;39744;53.314;5.710;2023-06-04T11:05:40;4.82;;;2.70;;
53843;SDS011;39744;53.314;5.710;2023-06-04T11:08:07;4.07;;;1.60;;
53843;SDS011;39744;53.314;5.710;2023-06-04T11:10:36;5.75;;;1.60;;
53843;SDS011;39744;53.314;5.710;2023-06-04T11:13:02;4.32;;;1.65;;
53843;SDS011;39744;53.314;5.710;2023-06-04T11:15:44;4.20;;;1.50;;
53843;SDS011;39744;53.314;5.710;2023-06-04T11:18:15;5.75;;;1.65;;
53843;SDS011;39744;53.314;5.710;2023-06-04T11:20:41;5.40;;;1.88;;
53843;SDS011;39744;53.314;5.710;2023-06-04T11:23:07;5.55;;;1.80;;
53843;SDS011;39744;53.314;5.710;2023-06-04T11:25:33;4.75;;;1.90;;
53843;SDS011;39744;53.314;5.710;2023-06-04T11:28:00;4.88;;;1.63;;
53843;SDS011;39744;53.314;5.710;2023-06-04T11:30:26;6.72;;;2.05;;
53843;SDS011;39744;53.314;5.710;2023-06-04T11:35:28;6.88;;;2.20;;
53843;SDS011;39744;53.314;5.710;2023-06-04T11:37:55;5.25;;;1.77;;
53843;SDS011;39744;53.314;5.710;2023-06-04T11:40:21;5.05;;;1.90;;
53843;SDS011;39744;53.314;5.710;2023-06-04T11:42:47;6.88;;;1.70;;
53843;SDS011;39744;53.314;5.710;2023-06-04T11:45:14;6.50;;;1.95;;
53843;SDS011;39744;53.314;5.710;2023-06-04T11:47:47;7.32;;;1.65;;
53843;SDS011;39744;53.314;5.710;2023-06-04T11:50:13;5.32;;;1.88;;
53843;SDS011;39744;53.314;5.710;2023-06-04T11:52:39;6.75;;;1.90;;
53843;SDS011;39744;53.314;5.710;2023-06-04T11:55:09;4.88;;;1.70;;
53843;SDS011;39744;53.314;5.710;2023-06-04T11:57:36;5.45;;;1.67;;
53843;SDS011;39744;53.314;5.710;2023-06-04T12:00:02;6.53;;;1.98;;
53843;SDS011;39744;53.314;5.710;2023-06-04T12:02:34;5.10;;;1.70;;
53843;SDS011;39744;53.314;5.710;2023-06-04T12:05:09;4.10;;;1.67;;
53843;SDS011;39744;53.314;5.710;2023-06-04T12:07:35;4.30;;;1.80;;
53843;SDS011;39744;53.314;5.710;2023-06-04T12:10:05;6.13;;;1.70;;
53843;SDS011;39744;53.314;5.710;2023-06-04T12:12:32;4.70;;;1.80;;
53843;SDS011;39744;53.314;5.710;2023-06-04T12:14:59;6.95;;;2.05;;
53843;SDS011;39744;53.314;5.710;2023-06-04T12:17:26;4.10;;;1.40;;
53843;SDS011;39744;53.314;5.710;2023-06-04T12:19:52;4.60;;;1.83;;
53843;SDS011;39744;53.314;5.710;2023-06-04T12:22:18;6.28;;;2.05;;
53843;SDS011;39744;53.314;5.710;2023-06-04T12:24:48;5.40;;;1.70;;
53843;SDS011;39744;53.314;5.710;2023-06-04T12:27:18;5.43;;;1.90;;
53843;SDS011;39744;53.314;5.710;2023-06-04T12:29:53;7.30;;;1.73;;
53843;SDS011;39744;53.314;5.710;2023-06-04T12:32:19;8.55;;;2.10;;
53843;SDS011;39744;53.314;5.710;2023-06-04T12:34:46;4.65;;;1.60;;
53843;SDS011;39744;53.314;5.710;2023-06-04T12:37:13;5.25;;;1.83;;
53843;SDS011;39744;53.314;5.710;2023-06-04T12:39:39;5.00;;;1.83;;
53843;SDS011;39744;53.314;5.710;2023-06-04T12:42:05;4.55;;;1.67;;
53843;SDS011;39744;53.314;5.710;2023-06-04T12:44:32;8.15;;;1.95;;
53843;SDS011;39744;53.314;5.710;2023-06-04T12:46:58;6.28;;;2.00;;
53843;SDS011;39744;53.314;5.710;2023-06-04T12:49:24;5.20;;;1.80;;
53843;SDS011;39744;53.314;5.710;2023-06-04T12:51:50;5.47;;;1.90;;
53843;SDS011;39744;53.314;5.710;2023-06-04T12:54:17;6.65;;;1.90;;
53843;SDS011;39744;53.314;5.710;2023-06-04T12:56:43;7.82;;;2.13;;
53843;SDS011;39744;53.314;5.710;2023-06-04T12:59:09;6.90;;;1.98;;
53843;SDS011;39744;53.314;5.710;2023-06-04T13:01:35;7.70;;;1.80;;
53843;SDS011;39744;53.314;5.710;2023-06-04T13:04:03;4.43;;;1.65;;
53843;SDS011;39744;53.314;5.710;2023-06-04T13:06:29;7.65;;;1.90;;
53843;SDS011;39744;53.314;5.710;2023-06-04T13:08:55;6.82;;;1.83;;
53843;SDS011;39744;53.314;5.710;2023-06-04T13:11:21;5.57;;;1.90;;
53843;SDS011;39744;53.314;5.710;2023-06-04T13:13:48;8.75;;;2.17;;
53843;SDS011;39744;53.314;5.710;2023-06-04T13:16:14;5.57;;;1.60;;
53843;SDS011;39744;53.314;5.710;2023-06-04T13:18:40;5.53;;;1.90;;
53843;SDS011;39744;53.314;5.710;2023-06-04T13:21:06;3.15;;;1.50;;
53843;SDS011;39744;53.314;5.710;2023-06-04T13:23:32;5.78;;;1.85;;
53843;SDS011;39744;53.314;5.710;2023-06-04T13:25:58;8.20;;;2.13;;
53843;SDS011;39744;53.314;5.710;2023-06-04T13:28:25;8.80;;;1.92;;
53843;SDS011;39744;53.314;5.710;2023-06-04T13:30:51;5.43;;;2.33;;
53843;SDS011;39744;53.314;5.710;2023-06-04T13:33:17;6.05;;;1.70;;
53843;SDS011;39744;53.314;5.710;2023-06-04T13:35:45;7.90;;;2.20;;
53843;SDS011;39744;53.314;5.710;2023-06-04T13:38:11;6.40;;;2.22;;
53843;SDS011;39744;53.314;5.710;2023-06-04T13:40:37;5.97;;;1.70;;
53843;SDS011;39744;53.314;5.710;2023-06-04T13:43:04;6.00;;;1.90;;
53843;SDS011;39744;53.314;5.710;2023-06-04T13:45:34;5.22;;;1.90;;
53843;SDS011;39744;53.314;5.710;2023-06-04T13:48:00;4.85;;;1.77;;
53843;SDS011;39744;53.314;5.710;2023-06-04T13:50:30;5.63;;;1.70;;
53843;SDS011;39744;53.314;5.710;2023-06-04T13:52:56;5.93;;;2.20;;
53843;SDS011;39744;53.314;5.710;2023-06-04T13:55:22;5.32;;;1.80;;
53843;SDS011;39744;53.314;5.710;2023-06-04T13:57:48;6.82;;;2.53;;
53843;SDS011;39744;53.314;5.710;2023-06-04T14:00:14;6.78;;;2.10;;
53843;SDS011;39744;53.314;5.710;2023-06-04T14:02:40;4.63;;;1.65;;
53843;SDS011;39744;53.314;5.710;2023-06-04T14:05:06;8.35;;;2.30;;
53843;SDS011;39744;53.314;5.710;2023-06-04T14:07:32;4.68;;;2.00;;
53843;SDS011;39744;53.314;5.710;2023-06-04T14:09:58;7.55;;;2.15;;
53843;SDS011;39744;53.314;5.710;2023-06-04T14:12:25;5.05;;;1.92;;
53843;SDS011;39744;53.314;5.710;2023-06-04T14:14:51;7.00;;;2.05;;
53843;SDS011;39744;53.314;5.710;2023-06-04T14:17:17;7.90;;;2.28;;
53843;SDS011;39744;53.314;5.710;2023-06-04T14:19:43;6.03;;;2.10;;
53843;SDS011;39744;53.314;5.710;2023-06-04T14:22:10;9.45;;;2.28;;
53843;SDS011;39744;53.314;5.710;2023-06-04T14:24:37;5.03;;;2.00;;
53843;SDS011;39744;53.314;5.710;2023-06-04T14:27:03;3.85;;;1.80;;
53843;SDS011;39744;53.314;5.710;2023-06-04T14:29:29;4.57;;;2.00;;
53843;SDS011;39744;53.314;5.710;2023-06-04T14:31:55;7.95;;;2.00;;
53843;SDS011;39744;53.314;5.710;2023-06-04T14:34:21;6.55;;;1.75;;
53843;SDS011;39744;53.314;5.710;2023-06-04T14:36:47;5.53;;;1.90;;
53843;SDS011;39744;53.314;5.710;2023-06-04T14:39:14;5.85;;;2.05;;
53843;SDS011;39744;53.314;5.710;2023-06-04T14:41:40;8.15;;;1.95;;
53843;SDS011;39744;53.314;5.710;2023-06-04T14:44:05;3.95;;;2.10;;
53843;SDS011;39744;53.314;5.710;2023-06-04T14:46:32;7.72;;;2.38;;